sensor_id;sensor_type;location;lat;lon;timestamp;pressure;altitude;pressure_sealevel;temperature;humidity
54918;BME280;40818;50.562;7.454;2023-08-08T00:01:09;97750.28;;;10.98;100.00
54918;BME280;40818;50.562;7.454;2023-08-08T00:11:12;97756.81;;;10.90;100.00
54918;BME280;40818;50.562;7.454;2023-08-08T00:21:19;97750.16;;;10.86;100.00
54918;BME280;40818;50.562;7.454;2023-08-08T00:31:22;97740.38;;;10.77;100.00
54918;BME280;40818;50.562;7.454;2023-08-08T00:41:29;97731.84;;;10.75;100.00
54918;BME280;40818;50.562;7.454;2023-08-08T00:51:32;97726.78;;;10.73;100.00
54918;BME280;40818;50.562;7.454;2023-08-08T01:01:38;97714.72;;;10.72;100.00
54918;BME280;40818;50.562;7.454;2023-08-08T01:11:42;97716.88;;;10.66;100.00
54918;BME280;40818;50.562;7.454;2023-08-08T01:21:52;97709.50;;;10.59;100.00
54918;BME280;40818;50.562;7.454;2023-08-08T01:32:00;97707.13;;;10.56;100.00
54918;BME280;40818;50.562;7.454;2023-08-08T01:42:06;97703.34;;;10.48;100.00
54918;BME280;40818;50.562;7.454;2023-08-08T01:52:12;97697.75;;;10.41;100.00
54918;BME280;40818;50.562;7.454;2023-08-08T02:02:16;97694.78;;;10.33;100.00
54918;BME280;40818;50.562;7.454;2023-08-08T02:12:22;97696.84;;;10.28;100.00
54918;BME280;40818;50.562;7.454;2023-08-08T02:22:26;97697.97;;;10.23;100.00
54918;BME280;40818;50.562;7.454;2023-08-08T02:32:33;97693.16;;;10.17;100.00
54918;BME280;40818;50.562;7.454;2023-08-08T02:42:36;97687.47;;;10.12;100.00
54918;BME280;40818;50.562;7.454;2023-08-08T02:52:43;97679.94;;;10.07;100.00
54918;BME280;40818;50.562;7.454;2023-08-08T03:02:47;97669.97;;;10.01;100.00
54918;BME280;40818;50.562;7.454;2023-08-08T03:12:54;97671.00;;;9.99;100.00
54918;BME280;40818;50.562;7.454;2023-08-08T03:22:58;97659.16;;;9.95;100.00
54918;BME280;40818;50.562;7.454;2023-08-08T03:33:06;97647.22;;;9.92;100.00
54918;BME280;40818;50.562;7.454;2023-08-08T03:43:10;97647.53;;;9.87;100.00
54918;BME280;40818;50.562;7.454;2023-08-08T03:53:16;97646.81;;;9.85;100.00
54918;BME280;40818;50.562;7.454;2023-08-08T04:03:19;97638.69;;;9.77;100.00
54918;BME280;40818;50.562;7.454;2023-08-08T04:13:25;97640.63;;;9.73;100.00
54918;BME280;40818;50.562;7.454;2023-08-08T04:23:29;97633.88;;;9.71;100.00
54918;BME280;40818;50.562;7.454;2023-08-08T04:33:35;97625.06;;;9.73;100.00
54918;BME280;40818;50.562;7.454;2023-08-08T04:43:39;97641.41;;;9.88;100.00
54918;BME280;40818;50.562;7.454;2023-08-08T04:53:45;97629.59;;;10.24;100.00
54918;BME280;40818;50.562;7.454;2023-08-08T05:03:48;97634.44;;;10.56;100.00
54918;BME280;40818;50.562;7.454;2023-08-08T05:13:54;97629.66;;;10.50;100.00
54918;BME280;40818;50.562;7.454;2023-08-08T05:23:58;97626.50;;;10.45;100.00
54918;BME280;40818;50.562;7.454;2023-08-08T05:34:04;97619.69;;;10.70;100.00
54918;BME280;40818;50.562;7.454;2023-08-08T05:44:08;97616.66;;;11.02;100.00
54918;BME280;40818;50.562;7.454;2023-08-08T05:54:14;97623.47;;;11.66;100.00
54918;BME280;40818;50.562;7.454;2023-08-08T06:04:17;97624.81;;;12.78;100.00
54918;BME280;40818;50.562;7.454;2023-08-08T06:14:23;97632.97;;;14.50;100.00
54918;BME280;40818;50.562;7.454;2023-08-08T06:24:26;97634.81;;;16.22;100.00
54918;BME280;40818;50.562;7.454;2023-08-08T06:34:33;97641.66;;;17.75;100.00
54918;BME280;40818;50.562;7.454;2023-08-08T06:44:41;97641.28;;;19.04;93.44
54918;BME280;40818;50.562;7.454;2023-08-08T06:54:48;97652.03;;;19.62;81.43
54918;BME280;40818;50.562;7.454;2023-08-08T07:04:51;97664.66;;;19.50;81.58
54918;BME280;40818;50.562;7.454;2023-08-08T07:14:57;97661.81;;;18.83;80.30
54918;BME280;40818;50.562;7.454;2023-08-08T07:25:01;97640.94;;;19.07;80.80
54918;BME280;40818;50.562;7.454;2023-08-08T07:35:08;97644.94;;;19.54;79.75
54918;BME280;40818;50.562;7.454;2023-08-08T07:45:11;97623.44;;;19.75;72.67
54918;BME280;40818;50.562;7.454;2023-08-08T07:55:17;97619.72;;;20.27;70.61
54918;BME280;40818;50.562;7.454;2023-08-08T08:05:21;97610.50;;;20.48;64.08
54918;BME280;40818;50.562;7.454;2023-08-08T08:15:28;97613.28;;;19.81;64.54
54918;BME280;40818;50.562;7.454;2023-08-08T08:25:31;97618.25;;;19.06;67.27
54918;BME280;40818;50.562;7.454;2023-08-08T08:35:37;97624.59;;;18.25;69.09
54918;BME280;40818;50.562;7.454;2023-08-08T08:45:43;97619.44;;;17.97;74.10
54918;BME280;40818;50.562;7.454;2023-08-08T08:55:50;97612.97;;;18.10;74.26
54918;BME280;40818;50.562;7.454;2023-08-08T09:05:55;97610.44;;;18.00;72.48
54918;BME280;40818;50.562;7.454;2023-08-08T09:16:04;97620.25;;;17.98;72.97
54918;BME280;40818;50.562;7.454;2023-08-08T09:26:13;97606.44;;;18.32;75.47
54918;BME280;40818;50.562;7.454;2023-08-08T09:36:19;97614.72;;;18.45;70.50
54918;BME280;40818;50.562;7.454;2023-08-08T09:46:23;97607.34;;;18.22;66.49
54918;BME280;40818;50.562;7.454;2023-08-08T09:56:29;97603.97;;;18.30;64.54
54918;BME280;40818;50.562;7.454;2023-08-08T10:06:33;97604.38;;;18.43;65.09
54918;BME280;40818;50.562;7.454;2023-08-08T10:16:41;97613.78;;;18.72;64.68
54918;BME280;40818;50.562;7.454;2023-08-08T10:26:51;97615.72;;;18.70;65.42
54918;BME280;40818;50.562;7.454;2023-08-08T10:36:57;97616.34;;;18.64;68.57
54918;BME280;40818;50.562;7.454;2023-08-08T10:47:01;97612.19;;;18.35;66.63
54918;BME280;40818;50.562;7.454;2023-08-08T10:57:15;97620.50;;;18.93;67.20
54918;BME280;40818;50.562;7.454;2023-08-08T11:07:20;97610.19;;;19.51;65.33
54918;BME280;40818;50.562;7.454;2023-08-08T11:17:27;97599.31;;;20.05;62.10
54918;BME280;40818;50.562;7.454;2023-08-08T11:27:31;97606.38;;;19.96;60.17
54918;BME280;40818;50.562;7.454;2023-08-08T11:37:37;97611.50;;;19.47;62.40
54918;BME280;40818;50.562;7.454;2023-08-08T11:47:41;97607.22;;;18.76;63.65
54918;BME280;40818;50.562;7.454;2023-08-08T11:57:47;97599.44;;;18.22;67.95
54918;BME280;40818;50.562;7.454;2023-08-08T12:07:51;97602.88;;;17.87;68.42
54918;BME280;40818;50.562;7.454;2023-08-08T12:17:57;97599.41;;;17.68;68.45
54918;BME280;40818;50.562;7.454;2023-08-08T12:28:02;97602.13;;;17.31;71.51
54918;BME280;40818;50.562;7.454;2023-08-08T12:38:08;97594.50;;;17.10;73.73
54918;BME280;40818;50.562;7.454;2023-08-08T12:48:12;97599.97;;;16.88;73.87
54918;BME280;40818;50.562;7.454;2023-08-08T12:58:18;97604.13;;;16.81;76.84
54918;BME280;40818;50.562;7.454;2023-08-08T13:08:21;97589.44;;;16.98;77.60
54918;BME280;40818;50.562;7.454;2023-08-08T13:18:27;97599.38;;;16.95;74.71
54918;BME280;40818;50.562;7.454;2023-08-08T13:28:31;97599.03;;;16.70;76.56
54918;BME280;40818;50.562;7.454;2023-08-08T13:38:37;97599.06;;;16.50;78.03
54918;BME280;40818;50.562;7.454;2023-08-08T13:48:41;97596.22;;;16.44;77.73
54918;BME280;40818;50.562;7.454;2023-08-08T13:58:48;97591.34;;;16.49;79.28
54918;BME280;40818;50.562;7.454;2023-08-08T14:08:52;97577.13;;;16.61;79.13
54918;BME280;40818;50.562;7.454;2023-08-08T14:18:58;97591.03;;;16.62;80.66
54918;BME280;40818;50.562;7.454;2023-08-08T14:29:01;97590.19;;;16.71;81.91
54918;BME280;40818;50.562;7.454;2023-08-08T14:39:07;97597.91;;;16.72;81.36
54918;BME280;40818;50.562;7.454;2023-08-08T14:49:11;97590.06;;;16.63;80.09
54918;BME280;40818;50.562;7.454;2023-08-08T14:59:17;97596.84;;;16.65;80.28
54918;BME280;40818;50.562;7.454;2023-08-08T15:09:21;97599.06;;;17.08;80.70
54918;BME280;40818;50.562;7.454;2023-08-08T15:19:27;97601.88;;;17.24;80.02
54918;BME280;40818;50.562;7.454;2023-08-08T15:29:30;97601.41;;;17.38;78.84
54918;BME280;40818;50.562;7.454;2023-08-08T15:39:36;97598.28;;;17.53;76.61
54918;BME280;40818;50.562;7.454;2023-08-08T15:49:40;97596.19;;;17.56;75.97
54918;BME280;40818;50.562;7.454;2023-08-08T15:59:46;97601.13;;;18.05;75.53
54918;BME280;40818;50.562;7.454;2023-08-08T16:09:49;97598.16;;;17.90;72.44
54918;BME280;40818;50.562;7.454;2023-08-08T16:19:55;97594.47;;;17.65;75.59
54918;BME280;40818;50.562;7.454;2023-08-08T16:29:59;97593.91;;;17.44;76.09
54918;BME280;40818;50.562;7.454;2023-08-08T16:40:07;97612.66;;;17.21;78.26
54918;BME280;40818;50.562;7.454;2023-08-08T16:50:11;97605.84;;;17.00;79.79
54918;BME280;40818;50.562;7.454;2023-08-08T17:00:18;97617.22;;;16.91;81.61
54918;BME280;40818;50.562;7.454;2023-08-08T17:10:21;97621.38;;;16.64;81.73
54918;BME280;40818;50.562;7.454;2023-08-08T17:20:27;97622.50;;;16.52;83.27
54918;BME280;40818;50.562;7.454;2023-08-08T17:30:31;97618.25;;;16.51;83.89
54918;BME280;40818;50.562;7.454;2023-08-08T17:40:37;97603.22;;;16.43;83.90
54918;BME280;40818;50.562;7.454;2023-08-08T17:50:40;97586.81;;;16.51;84.47
54918;BME280;40818;50.562;7.454;2023-08-08T18:00:47;97589.72;;;16.38;84.73
54918;BME280;40818;50.562;7.454;2023-08-08T18:10:55;97587.38;;;16.35;85.54
54918;BME280;40818;50.562;7.454;2023-08-08T18:21:01;97596.09;;;16.26;86.60
54918;BME280;40818;50.562;7.454;2023-08-08T18:31:05;97584.94;;;16.14;86.84
54918;BME280;40818;50.562;7.454;2023-08-08T18:41:11;97588.66;;;16.01;87.59
54918;BME280;40818;50.562;7.454;2023-08-08T18:51:14;97599.13;;;15.82;88.36
54918;BME280;40818;50.562;7.454;2023-08-08T19:01:21;97599.63;;;15.56;89.72
54918;BME280;40818;50.562;7.454;2023-08-08T19:11:24;97603.19;;;15.45;90.62
54918;BME280;40818;50.562;7.454;2023-08-08T19:21:30;97613.19;;;15.30;92.56
54918;BME280;40818;50.562;7.454;2023-08-08T19:31:34;97596.50;;;15.22;94.03
54918;BME280;40818;50.562;7.454;2023-08-08T19:41:40;97585.16;;;15.11;95.28
54918;BME280;40818;50.562;7.454;2023-08-08T19:51:43;97589.59;;;15.11;95.40
54918;BME280;40818;50.562;7.454;2023-08-08T20:01:49;97595.09;;;15.08;96.64
54918;BME280;40818;50.562;7.454;2023-08-08T20:11:53;97585.72;;;15.05;97.46
54918;BME280;40818;50.562;7.454;2023-08-08T20:21:59;97574.78;;;14.90;99.95
54918;BME280;40818;50.562;7.454;2023-08-08T20:32:02;97577.47;;;14.79;100.00
54918;BME280;40818;50.562;7.454;2023-08-08T20:42:09;97570.34;;;14.60;100.00
54918;BME280;40818;50.562;7.454;2023-08-08T20:52:12;97556.22;;;14.41;100.00
54918;BME280;40818;50.562;7.454;2023-08-08T21:02:18;97551.66;;;14.33;100.00
54918;BME280;40818;50.562;7.454;2023-08-08T21:12:22;97548.09;;;14.13;100.00
54918;BME280;40818;50.562;7.454;2023-08-08T21:22:28;97541.13;;;14.03;100.00
54918;BME280;40818;50.562;7.454;2023-08-08T21:32:31;97540.59;;;13.99;100.00
54918;BME280;40818;50.562;7.454;2023-08-08T21:42:38;97533.88;;;13.85;100.00
54918;BME280;40818;50.562;7.454;2023-08-08T21:52:41;97526.50;;;13.90;100.00
54918;BME280;40818;50.562;7.454;2023-08-08T22:02:47;97515.28;;;13.78;100.00
54918;BME280;40818;50.562;7.454;2023-08-08T22:12:51;97503.59;;;13.73;100.00
54918;BME280;40818;50.562;7.454;2023-08-08T22:22:59;97494.41;;;13.57;100.00
54918;BME280;40818;50.562;7.454;2023-08-08T22:33:03;97477.84;;;13.47;100.00
54918;BME280;40818;50.562;7.454;2023-08-08T22:43:10;97459.72;;;13.45;100.00
54918;BME280;40818;50.562;7.454;2023-08-08T22:53:13;97452.47;;;13.49;100.00
54918;BME280;40818;50.562;7.454;2023-08-08T23:03:20;97461.72;;;13.53;100.00
54918;BME280;40818;50.562;7.454;2023-08-08T23:13:23;97448.81;;;13.52;100.00
54918;BME280;40818;50.562;7.454;2023-08-08T23:23:29;97434.22;;;13.49;100.00
54918;BME280;40818;50.562;7.454;2023-08-08T23:33:33;97427.34;;;13.48;100.00
54918;BME280;40818;50.562;7.454;2023-08-08T23:43:39;97421.06;;;13.51;100.00
54918;BME280;40818;50.562;7.454;2023-08-08T23:53:42;97403.19;;;13.46;100.00
